Time;durP1;ratioP1;P1;durP2;ratioP2;P2;SDS_P1;SDS_P2;PMS_P1;PMS_P2;Temp;Humidity;BMP_temperature;BMP_pressure;BME280_temperature;BME280_humidity;BME280_pressure;Samples;Min_cycle;Max_cycle;Signal;HPM_P1;HPM_P2
2023/05/30 00:00:28;;;;;;;5.03;2.95;;;17.20;73.60;;;;;;4888873;29;20044;-71
2023/05/30 05:01:21;;;;;;;6.75;3.55;;;15.70;86.00;;;;;;5882161;23;20046;-70
2023/05/30 05:03:46;;;;;;;7.13;3.33;;;15.80;85.90;;;;;;4858389;29;20038;-71
2023/05/30 05:06:13;;;;;;;6.65;3.08;;;15.90;85.70;;;;;;4888417;29;20225;-69
2023/05/30 05:08:38;;;;;;;4.90;3.28;;;15.90;85.50;;;;;;4878862;29;20037;-71
2023/05/30 05:11:05;;;;;;;8.85;3.05;;;15.90;85.10;;;;;;4877151;29;20192;-70
2023/05/30 05:13:32;;;;;;;6.80;3.25;;;15.90;85.60;;;;;;4869506;29;20041;-70
2023/05/30 05:15:58;;;;;;;7.47;3.30;;;16.00;84.90;;;;;;4869961;29;20061;-71
2023/05/30 05:18:24;;;;;;;7.72;3.40;;;16.00;84.70;;;;;;4874558;29;20303;-71
2023/05/30 05:20:50;;;;;;;6.88;3.40;;;16.00;84.80;;;;;;4875522;29;20484;-72
2023/05/30 05:23:16;;;;;;;6.43;3.20;;;16.10;84.50;;;;;;4890552;29;20303;-71
2023/05/30 05:25:43;;;;;;;8.50;3.75;;;16.10;84.30;;;;;;4892177;29;20037;-72
2023/05/30 05:28:08;;;;;;;8.10;4.32;;;16.20;84.30;;;;;;4892202;29;20239;-71
2023/05/30 05:30:34;;;;;;;8.32;3.38;;;16.30;84.50;;;;;;4891788;29;20081;-70
2023/05/30 05:33:00;;;;;;;6.13;3.15;;;16.40;84.60;;;;;;4892473;29;20032;-70
2023/05/30 05:35:26;;;;;;;8.70;3.35;;;16.50;83.90;;;;;;4887837;29;20038;-69
2023/05/30 05:37:51;;;;;;;6.85;3.40;;;16.60;83.40;;;;;;4873400;29;20038;-70
2023/05/30 05:40:17;;;;;;;8.75;3.42;;;16.60;83.20;;;;;;4873590;29;20097;-71
2023/05/30 05:42:43;;;;;;;6.90;3.17;;;16.70;83.00;;;;;;4873082;29;20021;-70
2023/05/30 05:45:09;;;;;;;6.85;3.47;;;16.70;82.70;;;;;;4873620;29;20045;-70
2023/05/30 05:47:35;;;;;;;8.52;2.90;;;16.70;82.50;;;;;;4872739;29;20033;-69
2023/05/30 05:50:01;;;;;;;8.05;4.15;;;16.80;82.90;;;;;;4873135;29;20074;-70
2023/05/30 05:52:26;;;;;;;7.22;3.50;;;16.90;82.60;;;;;;4873041;29;20037;-70
2023/05/30 05:54:52;;;;;;;9.43;3.83;;;17.00;82.20;;;;;;4872887;29;20089;-71
2023/05/30 05:57:18;;;;;;;8.30;3.50;;;17.00;81.50;;;;;;4878929;29;20303;-70
2023/05/30 05:59:44;;;;;;;9.95;3.53;;;17.10;82.00;;;;;;4891362;29;20048;-72
2023/05/30 06:02:10;;;;;;;6.97;3.35;;;17.20;81.60;;;;;;4886722;29;20045;-71
2023/05/30 06:04:36;;;;;;;7.53;3.58;;;17.40;81.80;;;;;;4872658;29;20094;-70
2023/05/30 06:07:02;;;;;;;7.15;3.35;;;17.60;81.20;;;;;;4872829;29;20235;-71
2023/05/30 06:09:31;;;;;;;8.30;3.40;;;17.60;79.70;;;;;;4872849;29;20097;-70
2023/05/30 06:12:03;;;;;;;6.38;3.03;;;17.60;79.80;;;;;;4883998;29;20048;-71
2023/05/30 06:14:29;;;;;;;8.30;3.38;;;17.80;79.50;;;;;;4891355;29;20047;-71
2023/05/30 06:16:55;;;;;;;8.75;3.40;;;17.80;78.80;;;;;;4891060;29;20307;-72
2023/05/30 06:19:21;;;;;;;6.50;3.35;;;17.90;78.00;;;;;;4891255;29;20318;-71
2023/05/30 06:21:46;;;;;;;7.13;2.70;;;17.90;77.90;;;;;;4891025;29;20076;-71
2023/05/30 06:24:12;;;;;;;5.55;2.92;;;17.90;77.80;;;;;;4891433;29;20047;-71
2023/05/30 06:26:38;;;;;;;9.35;3.45;;;17.90;78.60;;;;;;4874302;29;20064;-71
2023/05/30 06:29:03;;;;;;;9.45;3.38;;;18.00;78.20;;;;;;4891355;29;20041;-71
2023/05/30 06:31:29;;;;;;;6.63;3.05;;;18.00;78.60;;;;;;4891283;29;20048;-68
2023/05/30 06:33:55;;;;;;;6.82;3.53;;;18.10;78.10;;;;;;4890455;29;20025;-73
2023/05/30 06:36:20;;;;;;;7.85;3.30;;;18.10;77.90;;;;;;4890746;29;20060;-70
2023/05/30 06:38:46;;;;;;;8.25;3.30;;;18.30;78.10;;;;;;4872246;29;20219;-70
2023/05/30 06:41:13;;;;;;;9.07;3.65;;;18.40;77.30;;;;;;4872449;29;20319;-70
2023/05/30 06:43:39;;;;;;;5.90;3.05;;;18.40;77.30;;;;;;4872071;29;20028;-70
2023/05/30 06:46:06;;;;;;;6.70;3.08;;;18.60;77.30;;;;;;4852943;29;20042;-70
2023/05/30 06:48:31;;;;;;;8.80;3.33;;;18.60;77.50;;;;;;4866481;29;20326;-70
2023/05/30 06:50:57;;;;;;;6.60;3.03;;;18.70;75.90;;;;;;4871902;29;20216;-71
2023/05/30 06:53:23;;;;;;;6.18;2.65;;;18.80;76.50;;;;;;4872412;29;20042;-71
2023/05/30 06:55:48;;;;;;;6.40;3.30;;;18.90;76.00;;;;;;4852057;29;20042;-71
2023/05/30 06:58:14;;;;;;;6.93;3.28;;;18.90;75.70;;;;;;4864343;29;20049;-70
2023/05/30 07:00:40;;;;;;;8.23;3.40;;;19.00;76.00;;;;;;4871490;29;20025;-70
2023/05/30 07:03:06;;;;;;;5.75;2.78;;;19.10;75.60;;;;;;4871551;29;20326;-70
2023/05/30 07:05:31;;;;;;;8.52;3.38;;;19.20;75.30;;;;;;4872229;29;20319;-70
2023/05/30 07:07:57;;;;;;;9.32;3.28;;;19.30;74.40;;;;;;4871555;29;20334;-70
2023/05/30 07:10:23;;;;;;;7.47;3.15;;;19.40;74.00;;;;;;4873690;29;20033;-69
2023/05/30 07:12:49;;;;;;;6.82;2.95;;;19.30;73.80;;;;;;4889905;29;20378;-71
2023/05/30 07:15:15;;;;;;;8.10;2.55;;;19.30;74.00;;;;;;4890489;29;20048;-71
2023/05/30 07:17:40;;;;;;;7.45;3.05;;;19.50;74.20;;;;;;4890183;29;20294;-72
2023/05/30 07:20:07;;;;;;;12.63;3.20;;;19.50;73.90;;;;;;4890335;29;20031;-71
2023/05/30 07:22:33;;;;;;;8.70;2.92;;;19.40;74.20;;;;;;4890616;29;20028;-72
2023/05/30 07:24:58;;;;;;;8.88;3.33;;;19.60;74.00;;;;;;4889609;29;20088;-71
2023/05/30 07:27:24;;;;;;;7.28;3.00;;;19.70;73.40;;;;;;4890273;29;20029;-73
2023/05/30 07:29:50;;;;;;;7.43;3.15;;;19.90;74.00;;;;;;4889961;29;20029;-71
2023/05/30 07:32:16;;;;;;;9.30;3.30;;;20.00;73.10;;;;;;4889901;29;20307;-72
2023/05/30 07:34:42;;;;;;;9.13;3.33;;;19.80;73.30;;;;;;4889580;29;20215;-72
2023/05/30 07:37:08;;;;;;;7.25;3.60;;;19.70;73.20;;;;;;4883831;29;20131;-73
2023/05/30 07:39:35;;;;;;;7.13;3.25;;;19.70;73.60;;;;;;4871731;29;20040;-73
2023/05/30 07:42:00;;;;;;;7.97;3.50;;;19.80;73.20;;;;;;4871143;29;20044;-72
2023/05/30 07:44:26;;;;;;;9.00;3.28;;;19.60;73.50;;;;;;4871348;29;20104;-71
2023/05/30 07:46:52;;;;;;;9.20;3.55;;;19.60;73.40;;;;;;4870623;29;20033;-72
2023/05/30 07:49:19;;;;;;;10.63;3.78;;;19.70;73.60;;;;;;4871568;29;20248;-72
2023/05/30 07:51:45;;;;;;;9.00;2.85;;;19.80;74.10;;;;;;4870714;29;20353;-72
2023/05/30 07:54:11;;;;;;;9.27;3.38;;;19.90;73.20;;;;;;4871242;29;20034;-71
2023/05/30 07:56:36;;;;;;;9.80;3.45;;;19.60;73.90;;;;;;4870812;29;20037;-71
2023/05/30 07:59:03;;;;;;;7.93;2.72;;;19.60;74.60;;;;;;4859383;29;20055;-71
2023/05/30 08:01:29;;;;;;;5.75;3.20;;;19.70;73.70;;;;;;4871706;29;20040;-70
2023/05/30 08:03:54;;;;;;;7.85;2.72;;;19.70;73.50;;;;;;4870286;29;20026;-70
2023/05/30 08:06:20;;;;;;;6.70;2.83;;;19.60;73.10;;;;;;4886917;29;20181;-71
2023/05/30 08:08:46;;;;;;;10.15;3.33;;;19.80;73.70;;;;;;4880654;29;20038;-69
2023/05/30 08:11:14;;;;;;;8.02;2.58;;;19.90;73.40;;;;;;4854600;29;20064;-72
2023/05/30 08:13:41;;;;;;;6.35;3.03;;;20.10;72.10;;;;;;4870873;29;20026;-72
2023/05/30 08:16:10;;;;;;;7.70;3.03;;;20.30;72.10;;;;;;4863839;29;20038;-73
2023/05/30 08:18:37;;;;;;;6.07;2.90;;;20.40;72.20;;;;;;4869817;29;20353;-73
2023/05/30 08:21:03;;;;;;;7.95;2.90;;;20.50;71.40;;;;;;4880628;29;20043;-75
2023/05/30 08:23:29;;;;;;;6.63;2.90;;;20.70;71.50;;;;;;4884209;29;20101;-70
2023/05/30 08:25:56;;;;;;;8.30;3.00;;;20.90;70.40;;;;;;4851648;29;20320;-71
2023/05/30 08:28:21;;;;;;;5.85;3.03;;;21.00;68.40;;;;;;4870345;29;20311;-70
2023/05/30 08:30:48;;;;;;;6.68;2.80;;;21.10;69.20;;;;;;4870265;29;20022;-70
2023/05/30 08:33:18;;;;;;;12.85;3.63;;;21.00;68.40;;;;;;4868782;29;20051;-71
2023/05/30 08:35:44;;;;;;;6.85;3.00;;;20.90;68.80;;;;;;4864279;29;20073;-71
2023/05/30 08:38:10;;;;;;;14.07;4.13;;;20.90;68.90;;;;;;4876685;29;20033;-70
2023/05/30 08:40:40;;;;;;;11.38;3.17;;;21.10;68.90;;;;;;4889238;29;20370;-70
2023/05/30 08:43:06;;;;;;;14.63;3.20;;;21.20;68.10;;;;;;4872223;29;20042;-70
2023/05/30 08:45:32;;;;;;;8.25;3.17;;;21.30;68.20;;;;;;4889007;29;20035;-70
2023/05/30 08:48:01;;;;;;;6.47;2.97;;;21.30;68.20;;;;;;4888319;29;20060;-70
2023/05/30 08:50:28;;;;;;;10.85;3.40;;;21.10;67.70;;;;;;4873133;29;20045;-72
2023/05/30 08:53:01;;;;;;;11.95;3.42;;;21.20;68.60;;;;;;4869988;29;20311;-69
2023/05/30 08:55:31;;;;;;;12.40;4.07;;;21.40;68.30;;;;;;4869875;29;20048;-68
2023/05/30 08:58:20;;;;;;;9.55;3.53;;;21.30;68.00;;;;;;4863220;29;20049;-69
2023/05/30 09:00:48;;;;;;;7.03;3.00;;;21.40;68.20;;;;;;4869797;29;20319;-72
2023/05/30 09:03:15;;;;;;;7.28;3.08;;;21.30;68.00;;;;;;4870487;29;20059;-71
2023/05/30 09:05:42;;;;;;;11.15;3.15;;;21.20;68.20;;;;;;4870107;29;20022;-71
2023/05/30 09:08:09;;;;;;;8.07;2.63;;;21.10;68.60;;;;;;4853064;29;20040;-71
2023/05/30 09:10:36;;;;;;;5.65;2.70;;;21.20;69.40;;;;;;4870845;29;20029;-71
2023/05/30 09:13:01;;;;;;;7.40;3.05;;;21.30;68.80;;;;;;4869662;29;20146;-70
2023/05/30 09:15:27;;;;;;;16.20;3.50;;;21.30;68.30;;;;;;4870177;29;20313;-70
2023/05/30 09:17:54;;;;;;;7.60;3.10;;;21.30;68.10;;;;;;4869675;29;20097;-71
2023/05/30 09:20:22;;;;;;;8.25;2.80;;;21.50;68.60;;;;;;4870232;29;20089;-69
2023/05/30 09:22:47;;;;;;;12.70;3.33;;;21.60;67.80;;;;;;4869431;29;20120;-70
2023/05/30 09:25:15;;;;;;;48.63;5.65;;;21.50;67.50;;;;;;4880566;29;20315;-71
2023/05/30 09:27:46;;;;;;;15.20;4.20;;;21.60;68.40;;;;;;4888692;29;20318;-71
2023/05/30 09:30:12;;;;;;;8.32;2.80;;;21.80;68.00;;;;;;4872207;29;20037;-70
2023/05/30 09:32:39;;;;;;;15.52;3.75;;;21.80;67.10;;;;;;4888527;29;20037;-73
2023/05/30 09:35:09;;;;;;;11.40;3.63;;;21.90;67.90;;;;;;4888227;29;20398;-71
2023/05/30 09:37:41;;;;;;;15.90;4.22;;;21.90;67.10;;;;;;4878673;29;20223;-70
2023/05/30 09:40:08;;;;;;;9.93;3.60;;;21.90;67.50;;;;;;4869616;29;20110;-70
2023/05/30 09:42:40;;;;;;;15.93;4.20;;;22.00;67.00;;;;;;4870046;29;20021;-70
2023/05/30 09:45:11;;;;;;;8.35;3.05;;;22.00;67.30;;;;;;4869364;29;20766;-71
2023/05/30 09:47:44;;;;;;;9.25;2.88;;;22.10;66.30;;;;;;4869702;29;20041;-71
2023/05/30 09:50:12;;;;;;;7.68;3.17;;;22.10;66.40;;;;;;4869375;29;20060;-70
2023/05/30 09:52:40;;;;;;;8.10;2.63;;;22.20;66.00;;;;;;4887773;29;20037;-70
2023/05/30 09:55:09;;;;;;;7.25;3.03;;;22.30;66.60;;;;;;4887565;29;20076;-71
2023/05/30 09:57:37;;;;;;;7.53;2.72;;;22.30;66.00;;;;;;4876074;29;20193;-72
2023/05/30 10:00:11;;;;;;;7.80;2.60;;;22.40;66.10;;;;;;4869056;29;20056;-70
2023/05/30 10:02:39;;;;;;;8.63;2.72;;;22.50;65.60;;;;;;4869272;29;20057;-71
2023/05/30 10:05:06;;;;;;;8.82;3.00;;;22.50;65.20;;;;;;4869292;29;20042;-69
2023/05/30 10:07:32;;;;;;;6.97;2.70;;;22.70;64.50;;;;;;4869881;29;20094;-71
2023/05/30 10:09:59;;;;;;;6.75;2.80;;;22.80;64.60;;;;;;4888548;29;20081;-71
2023/05/30 10:12:25;;;;;;;8.10;3.00;;;22.80;64.40;;;;;;4892800;29;20037;-70
2023/05/30 10:14:51;;;;;;;8.00;3.00;;;22.70;64.00;;;;;;4891070;29;20068;-71
2023/05/30 10:17:21;;;;;;;8.75;3.25;;;22.80;64.30;;;;;;4875809;29;20042;-70
2023/05/30 10:19:56;;;;;;;7.60;2.90;;;22.80;64.90;;;;;;4853191;29;20048;-70
2023/05/30 10:22:26;;;;;;;6.05;2.75;;;22.90;64.30;;;;;;4865637;29;20045;-71
2023/05/30 10:24:53;;;;;;;7.07;2.70;;;22.90;63.80;;;;;;4889616;29;20100;-70
2023/05/30 10:27:31;;;;;;;8.75;2.67;;;22.90;64.70;;;;;;4891405;29;20073;-70
2023/05/30 10:30:08;;;;;;;9.27;3.20;;;23.10;64.70;;;;;;4890670;29;20100;-71
2023/05/30 10:32:36;;;;;;;8.10;2.90;;;23.20;63.50;;;;;;4891240;29;20037;-71
2023/05/30 10:35:08;;;;;;;7.03;2.80;;;23.40;64.00;;;;;;4890737;29;20048;-71
2023/05/30 10:37:36;;;;;;;6.18;2.90;;;23.50;63.80;;;;;;4881563;29;20248;-69
2023/05/30 10:40:10;;;;;;;6.07;2.63;;;23.70;63.30;;;;;;4852720;29;20049;-71
2023/05/30 10:43:10;;;;;;;7.43;2.72;;;23.80;63.00;;;;;;4865290;29;20096;-71
2023/05/30 10:46:14;;;;;;;5.55;2.63;;;23.80;62.70;;;;;;4891345;29;20322;-78
2023/05/30 10:49:03;;;;;;;4.88;2.20;;;23.80;62.70;;;;;;4887517;29;20041;-70
2023/05/30 10:51:29;;;;;;;5.90;2.58;;;23.90;61.90;;;;;;4890936;29;20041;-70
2023/05/30 10:53:59;;;;;;;8.85;2.70;;;24.00;61.60;;;;;;4890181;29;20048;-69
2023/05/30 10:56:34;;;;;;;4.68;2.55;;;24.10;61.80;;;;;;4887473;29;20112;-70
2023/05/30 10:59:02;;;;;;;5.63;2.78;;;24.10;61.70;;;;;;4876392;29;20354;-75
2023/05/30 11:01:29;;;;;;;15.77;4.03;;;24.20;61.10;;;;;;4871342;29;20267;-72
2023/05/30 11:03:57;;;;;;;26.58;5.13;;;24.20;60.70;;;;;;4871972;29;20038;-70
2023/05/30 11:06:30;;;;;;;25.98;6.45;;;24.20;60.90;;;;;;4872288;29;20061;-73
2023/05/30 11:09:17;;;;;;;9.93;3.40;;;24.40;61.20;;;;;;4872355;29;20041;-72
2023/05/30 11:11:43;;;;;;;11.75;3.40;;;24.50;60.60;;;;;;4850186;29;20021;-72
2023/05/30 11:14:11;;;;;;;19.33;4.60;;;24.50;60.20;;;;;;4872143;29;20029;-72
2023/05/30 11:16:56;;;;;;;10.00;4.22;;;24.80;60.50;;;;;;4875903;29;20060;-73
2023/05/30 11:19:26;;;;;;;13.18;3.45;;;25.00;59.50;;;;;;4890219;29;20037;-71
2023/05/30 11:22:03;;;;;;;7.22;2.83;;;25.10;59.10;;;;;;4871467;29;20100;-72
2023/05/30 11:24:30;;;;;;;10.80;3.33;;;25.40;59.50;;;;;;4885154;29;20112;-71
2023/05/30 11:26:58;;;;;;;7.68;2.88;;;25.50;58.20;;;;;;4855649;29;20037;-70
2023/05/30 11:29:51;;;;;;;7.00;2.38;;;25.40;58.00;;;;;;4871116;29;20033;-71
2023/05/30 11:32:23;;;;;;;7.40;2.60;;;25.20;58.30;;;;;;4878994;29;20317;-71
2023/05/30 11:35:06;;;;;;;8.77;2.60;;;25.40;57.80;;;;;;4890066;29;20077;-70
2023/05/30 11:37:32;;;;;;;4.45;2.40;;;26.30;57.00;;;;;;4880884;29;20037;-71
2023/05/30 11:39:59;;;;;;;6.75;2.40;;;27.00;55.00;;;;;;4851054;29;20041;-70
2023/05/30 11:42:29;;;;;;;7.63;2.90;;;27.60;55.00;;;;;;4863444;29;20179;-71
2023/05/30 11:44:55;;;;;;;6.53;2.70;;;28.60;54.10;;;;;;4870666;29;20045;-72
2023/05/30 11:47:22;;;;;;;6.07;2.60;;;29.60;53.40;;;;;;4881505;29;20040;-71
2023/05/30 11:49:48;;;;;;;5.55;2.30;;;30.80;52.20;;;;;;4889572;29;20222;-72
2023/05/30 11:52:14;;;;;;;7.30;2.35;;;31.70;50.50;;;;;;4889204;29;20094;-72
2023/05/30 11:54:40;;;;;;;4.97;2.35;;;31.80;49.80;;;;;;4889798;29;20021;-71
2023/05/30 11:57:07;;;;;;;7.25;2.33;;;32.00;48.40;;;;;;4876052;29;20025;-72
2023/05/30 11:59:33;;;;;;;4.45;2.42;;;32.20;49.30;;;;;;4871019;29;20052;-70
2023/05/30 12:02:01;;;;;;;4.95;1.98;;;32.90;48.60;;;;;;4869631;29;20237;-71
2023/05/30 12:04:32;;;;;;;7.03;2.70;;;33.00;48.00;;;;;;4866824;29;20319;-71
2023/05/30 12:07:03;;;;;;;5.28;2.20;;;33.60;47.70;;;;;;4870554;29;20033;-71
2023/05/30 12:09:35;;;;;;;6.05;2.33;;;34.50;46.60;;;;;;4870805;29;20045;-71
2023/05/30 12:12:01;;;;;;;9.13;2.80;;;35.00;46.30;;;;;;4882191;29;20025;-71
2023/05/30 12:14:42;;;;;;;9.45;2.38;;;35.50;46.00;;;;;;4889242;29;20549;-71
2023/05/30 12:17:17;;;;;;;7.00;2.50;;;35.30;46.20;;;;;;4874545;29;20041;-70
2023/05/30 12:19:44;;;;;;;4.75;2.15;;;35.70;45.40;;;;;;4866350;29;20330;-70
2023/05/30 12:22:16;;;;;;;6.63;2.60;;;35.50;45.10;;;;;;4888128;29;20035;-70
2023/05/30 12:24:42;;;;;;;4.53;2.25;;;36.00;44.80;;;;;;4872526;29;20042;-71
2023/05/30 12:27:16;;;;;;;7.75;2.80;;;35.90;44.30;;;;;;4870182;29;20105;-71
2023/05/30 12:29:42;;;;;;;6.43;2.28;;;36.10;44.20;;;;;;4851111;29;20048;-71
2023/05/30 12:32:08;;;;;;;5.68;2.55;;;36.30;44.10;;;;;;4864597;29;20033;-71
2023/05/30 12:34:45;;;;;;;12.23;2.95;;;36.10;43.60;;;;;;4870948;29;20354;-71
2023/05/30 12:37:12;;;;;;;4.80;2.47;;;36.50;43.60;;;;;;4871246;29;20037;-72
2023/05/30 12:39:47;;;;;;;5.25;2.38;;;37.30;44.10;;;;;;4888953;29;20060;-70
2023/05/30 12:42:13;;;;;;;8.05;2.20;;;37.50;43.40;;;;;;4888569;29;20322;-75
2023/05/30 12:44:52;;;;;;;4.72;2.17;;;36.40;43.60;;;;;;4889035;29;20100;-72
2023/05/30 12:47:18;;;;;;;6.32;2.65;;;36.50;43.10;;;;;;4888705;29;20041;-73
2023/05/30 12:49:44;;;;;;;4.60;2.28;;;36.90;43.10;;;;;;4888861;29;20320;-72
2023/05/30 12:52:11;;;;;;;6.47;2.38;;;37.60;42.90;;;;;;4888500;29;20033;-71
2023/05/30 12:54:37;;;;;;;5.80;2.00;;;38.40;42.60;;;;;;4888795;29;20312;-70
2023/05/30 12:57:04;;;;;;;4.28;2.10;;;38.60;42.10;;;;;;4854599;29;20060;-72
2023/05/30 12:59:30;;;;;;;5.25;2.75;;;38.70;41.70;;;;;;4869833;29;20033;-71
2023/05/30 13:01:56;;;;;;;5.80;2.15;;;38.60;42.40;;;;;;4878756;29;20077;-72
2023/05/30 13:04:22;;;;;;;4.43;1.95;;;38.70;42.10;;;;;;4888891;29;20079;-72
2023/05/30 13:06:48;;;;;;;4.50;2.00;;;39.10;41.60;;;;;;4888620;29;20041;-71
2023/05/30 13:09:15;;;;;;;5.68;2.28;;;39.70;40.90;;;;;;4873677;29;20029;-72
2023/05/30 13:11:41;;;;;;;9.07;2.53;;;39.90;41.70;;;;;;4878028;29;20041;-72
2023/05/30 13:14:07;;;;;;;5.57;2.30;;;39.30;41.90;;;;;;4888047;29;20299;-70
2023/05/30 13:16:33;;;;;;;4.07;1.88;;;37.90;42.10;;;;;;4878334;29;20050;-73
2023/05/30 13:18:59;;;;;;;6.15;2.20;;;36.30;43.00;;;;;;4869738;29;20028;-71
2023/05/30 13:21:25;;;;;;;4.18;2.35;;;34.70;44.10;;;;;;4869618;29;20042;-74
2023/05/30 13:23:51;;;;;;;4.95;2.20;;;34.90;44.70;;;;;;4869618;29;20025;-70
2023/05/30 13:26:16;;;;;;;6.03;2.67;;;36.90;43.40;;;;;;4887583;29;20044;-70
2023/05/30 13:28:42;;;;;;;6.50;3.08;;;38.00;42.30;;;;;;4871963;29;20346;-70
2023/05/30 13:31:08;;;;;;;6.05;2.10;;;38.20;42.10;;;;;;4888179;29;20037;-73
2023/05/30 13:33:34;;;;;;;6.35;2.00;;;36.80;43.10;;;;;;4888608;29;20324;-73
2023/05/30 13:35:59;;;;;;;7.10;2.30;;;35.30;44.10;;;;;;4887578;29;20036;-72
2023/05/30 13:38:28;;;;;;;8.52;2.55;;;35.30;44.30;;;;;;4872268;29;20037;-71
2023/05/30 13:40:53;;;;;;;4.32;2.33;;;36.50;43.90;;;;;;4869597;29;20025;-72
2023/05/30 13:43:21;;;;;;;5.20;2.17;;;37.00;42.90;;;;;;4852838;29;20037;-72
2023/05/30 13:45:48;;;;;;;4.25;2.08;;;37.80;42.20;;;;;;4873152;29;20215;-72
2023/05/30 13:48:21;;;;;;;5.30;2.17;;;38.50;42.00;;;;;;4872757;29;20056;-73
2023/05/30 13:50:48;;;;;;;5.82;2.33;;;39.10;41.10;;;;;;4873528;29;20029;-73
2023/05/30 13:53:14;;;;;;;4.93;1.92;;;39.90;41.10;;;;;;4872767;29;20091;-73
2023/05/30 13:55:39;;;;;;;5.93;2.00;;;40.10;40.60;;;;;;4853501;29;20038;-72
2023/05/30 13:58:05;;;;;;;5.13;2.10;;;40.40;40.90;;;;;;4855073;29;20032;-72
2023/05/30 14:00:31;;;;;;;5.20;2.15;;;40.60;41.40;;;;;;4879870;29;20037;-73
2023/05/30 14:02:58;;;;;;;5.45;2.03;;;41.00;40.40;;;;;;4874906;29;20055;-72
2023/05/30 14:05:24;;;;;;;4.63;2.20;;;38.90;40.70;;;;;;4891521;29;20103;-72
2023/05/30 14:07:50;;;;;;;5.63;2.10;;;37.00;42.00;;;;;;4868556;29;20212;-71
2023/05/30 14:10:17;;;;;;;6.95;2.08;;;37.90;41.90;;;;;;4876787;29;20323;-73
2023/05/30 14:12:44;;;;;;;6.65;2.42;;;38.70;41.70;;;;;;4876342;29;20091;-72
2023/05/30 14:15:11;;;;;;;4.93;2.17;;;38.10;41.50;;;;;;4872235;29;20085;-72
2023/05/30 14:17:37;;;;;;;7.83;2.00;;;37.00;42.20;;;;;;4872912;29;20037;-72
2023/05/30 14:20:04;;;;;;;8.10;2.67;;;35.40;43.50;;;;;;4872438;29;20029;-74
2023/05/30 14:22:30;;;;;;;5.45;2.22;;;34.50;44.70;;;;;;4872772;29;20033;-72
2023/05/30 14:24:56;;;;;;;6.85;2.40;;;33.70;44.80;;;;;;4872483;29;20323;-72
2023/05/30 14:27:22;;;;;;;5.50;2.13;;;33.90;45.80;;;;;;4881395;29;20041;-72
2023/05/30 14:29:48;;;;;;;5.13;2.08;;;36.10;44.20;;;;;;4892295;29;20039;-72
2023/05/30 14:32:14;;;;;;;8.90;2.67;;;37.60;42.60;;;;;;4890920;29;20319;-72
2023/05/30 14:34:39;;;;;;;10.23;4.95;;;37.70;41.80;;;;;;4891296;29;20041;-71
2023/05/30 14:37:06;;;;;;;5.90;2.65;;;37.80;42.20;;;;;;4884538;29;20150;-72
2023/05/30 14:39:32;;;;;;;5.57;2.30;;;37.50;41.60;;;;;;4872805;29;20056;-71
2023/05/30 14:41:58;;;;;;;6.78;2.60;;;36.80;42.40;;;;;;4872326;29;20033;-71
2023/05/30 14:44:24;;;;;;;4.78;2.22;;;35.00;43.30;;;;;;4871996;29;20227;-72
2023/05/30 14:46:50;;;;;;;6.07;2.15;;;33.60;44.50;;;;;;4872194;29;20073;-72
2023/05/30 14:49:15;;;;;;;5.00;2.35;;;32.40;45.10;;;;;;4871751;29;20371;-73
2023/05/30 14:51:41;;;;;;;9.27;2.78;;;32.10;45.80;;;;;;4871951;29;20049;-71
2023/05/30 14:54:08;;;;;;;4.15;2.35;;;32.00;46.60;;;;;;4871417;29;20200;-72
2023/05/30 14:56:34;;;;;;;6.30;2.08;;;32.60;45.70;;;;;;4872212;29;20227;-72
2023/05/30 14:58:59;;;;;;;4.57;2.30;;;34.50;44.40;;;;;;4872234;29;20049;-71
2023/05/30 15:01:25;;;;;;;5.35;1.95;;;36.60;43.60;;;;;;4870630;29;20081;-71
2023/05/30 15:03:51;;;;;;;4.22;2.22;;;38.40;41.80;;;;;;4872267;29;20078;-71
2023/05/30 15:06:21;;;;;;;4.57;2.40;;;38.70;41.40;;;;;;4871679;29;20113;-71
2023/05/30 15:08:46;;;;;;;13.05;2.05;;;37.20;42.00;;;;;;4871964;29;20150;-72
2023/05/30 15:11:12;;;;;;;8.02;2.10;;;36.00;43.10;;;;;;4883115;29;20029;-72
2023/05/30 15:13:38;;;;;;;5.18;2.22;;;36.20;42.60;;;;;;4890610;29;20244;-71
2023/05/30 15:16:04;;;;;;;5.45;1.80;;;37.30;42.10;;;;;;4890223;29;20037;-71
2023/05/30 15:18:30;;;;;;;4.03;1.90;;;36.60;42.20;;;;;;4890506;29;20154;-72
2023/05/30 15:20:55;;;;;;;4.22;2.03;;;37.10;41.70;;;;;;4890335;29;20033;-72
2023/05/30 15:23:21;;;;;;;5.82;2.13;;;37.70;41.80;;;;;;4889850;29;20035;-72
2023/05/30 15:25:47;;;;;;;4.32;1.90;;;38.40;41.60;;;;;;4890479;29;20044;-72
2023/05/30 15:28:13;;;;;;;4.90;1.88;;;38.80;40.30;;;;;;4873103;29;20247;-71
2023/05/30 15:30:39;;;;;;;4.65;2.10;;;39.60;40.60;;;;;;4873504;29;20081;-70
2023/05/30 15:33:04;;;;;;;4.55;1.85;;;40.80;39.60;;;;;;4889864;29;20039;-72
2023/05/30 15:35:30;;;;;;;5.15;2.22;;;40.80;39.00;;;;;;4889927;29;20062;-70
2023/05/30 15:37:56;;;;;;;6.28;2.20;;;41.00;39.30;;;;;;4877552;29;20037;-72
2023/05/30 15:40:22;;;;;;;4.68;2.03;;;41.30;39.00;;;;;;4871032;29;20025;-71
2023/05/30 15:42:47;;;;;;;3.80;2.10;;;41.80;39.10;;;;;;4871368;29;20064;-71
2023/05/30 15:45:13;;;;;;;4.60;2.00;;;41.50;38.90;;;;;;4869714;29;20033;-71
2023/05/30 15:47:39;;;;;;;6.35;2.00;;;40.20;39.20;;;;;;4874735;29;20052;-70
2023/05/30 15:50:07;;;;;;;4.13;1.50;;;40.30;39.60;;;;;;4883307;29;20312;-71
2023/05/30 15:52:35;;;;;;;5.70;2.42;;;40.40;39.50;;;;;;4888458;29;20056;-69
2023/05/30 15:55:01;;;;;;;5.35;2.00;;;40.20;38.80;;;;;;4883427;29;20209;-70
2023/05/30 15:57:26;;;;;;;4.18;1.90;;;39.90;39.40;;;;;;4885737;29;20060;-72
2023/05/30 15:59:52;;;;;;;6.93;2.50;;;39.70;39.50;;;;;;4908368;29;20036;-71
2023/05/30 16:02:18;;;;;;;4.63;1.70;;;39.90;38.90;;;;;;4907442;29;20053;-73
2023/05/30 16:04:44;;;;;;;4.35;2.00;;;39.10;39.30;;;;;;4908156;29;20099;-73
2023/05/30 16:07:10;;;;;;;4.53;1.75;;;39.20;39.50;;;;;;4907289;29;20076;-72
2023/05/30 16:09:38;;;;;;;5.28;1.98;;;39.40;39.40;;;;;;4903257;29;20315;-71
2023/05/30 16:12:07;;;;;;;5.88;1.98;;;39.10;39.20;;;;;;4889294;29;20036;-73
2023/05/30 16:14:33;;;;;;;6.05;1.85;;;39.00;39.40;;;;;;4889292;29;20059;-72
2023/05/30 16:16:59;;;;;;;4.35;2.00;;;39.10;39.20;;;;;;4889262;29;20342;-70
2023/05/30 16:19:25;;;;;;;5.30;2.40;;;39.20;39.80;;;;;;4888788;29;20279;-75
2023/05/30 16:21:54;;;;;;;6.53;2.20;;;39.60;39.50;;;;;;4888807;29;20029;-72
2023/05/30 16:24:21;;;;;;;6.05;1.88;;;39.40;39.20;;;;;;4888641;29;20045;-72
2023/05/30 16:26:46;;;;;;;9.88;2.50;;;39.60;38.70;;;;;;4889190;29;20147;-73
2023/05/30 16:29:13;;;;;;;6.80;1.98;;;39.50;39.80;;;;;;4888911;29;20037;-72
2023/05/30 16:31:39;;;;;;;6.82;2.05;;;39.20;38.80;;;;;;4888986;29;20374;-74
2023/05/30 16:34:04;;;;;;;5.65;2.10;;;39.40;38.80;;;;;;4872773;29;20028;-72
2023/05/30 16:36:30;;;;;;;5.72;2.00;;;39.70;39.00;;;;;;4888344;29;20059;-72
2023/05/30 16:38:57;;;;;;;4.07;2.10;;;39.50;38.70;;;;;;4889189;29;20084;-71
2023/05/30 16:41:23;;;;;;;5.82;2.33;;;39.40;39.00;;;;;;4888497;29;20045;-71
2023/05/30 16:43:49;;;;;;;4.05;1.77;;;39.40;39.60;;;;;;4889103;29;20137;-73
2023/05/30 16:46:18;;;;;;;4.97;1.95;;;38.70;39.50;;;;;;4888361;29;20033;-74
2023/05/30 16:48:43;;;;;;;4.45;2.10;;;38.10;38.90;;;;;;4888958;29;20041;-74
2023/05/30 16:51:09;;;;;;;3.20;1.73;;;37.80;39.50;;;;;;4888344;29;20131;-74
2023/05/30 16:53:35;;;;;;;4.70;1.90;;;37.30;39.70;;;;;;4905697;29;20333;-72
2023/05/30 16:56:12;;;;;;;4.78;1.88;;;37.30;39.70;;;;;;4876775;29;20033;-72
2023/05/30 16:58:38;;;;;;;6.40;2.05;;;37.40;40.30;;;;;;4871757;29;20218;-76
2023/05/30 17:01:05;;;;;;;4.68;2.05;;;37.00;40.00;;;;;;4888864;29;20085;-71
2023/05/30 17:03:31;;;;;;;5.57;2.33;;;36.90;39.60;;;;;;4887984;29;20065;-72
2023/05/30 17:05:57;;;;;;;6.15;2.30;;;36.60;38.90;;;;;;4888953;29;20045;-74
2023/05/30 17:08:23;;;;;;;4.10;1.80;;;37.00;39.00;;;;;;4871423;29;20093;-71
2023/05/30 17:10:49;;;;;;;3.60;1.63;;;37.60;38.60;;;;;;4897684;29;20036;-73
2023/05/30 17:13:15;;;;;;;3.95;2.10;;;37.70;38.40;;;;;;4906574;29;20039;-73
2023/05/30 17:15:41;;;;;;;4.70;1.80;;;38.20;38.40;;;;;;4907373;29;20322;-73
2023/05/30 17:18:07;;;;;;;3.20;2.03;;;37.50;38.00;;;;;;4908896;29;20075;-73
2023/05/30 17:20:32;;;;;;;4.60;1.80;;;37.70;38.30;;;;;;4910785;29;20029;-71
2023/05/30 17:22:58;;;;;;;5.57;1.90;;;36.80;38.80;;;;;;4911163;29;20276;-72
2023/05/30 17:25:26;;;;;;;3.70;1.65;;;36.30;38.90;;;;;;4910443;29;20071;-71
2023/05/30 17:27:54;;;;;;;6.55;2.03;;;35.30;40.20;;;;;;4911111;29;20024;-72
2023/05/30 17:30:20;;;;;;;5.70;2.00;;;35.50;39.70;;;;;;4910908;29;20024;-72
2023/05/30 17:32:46;;;;;;;5.05;1.98;;;35.70;39.70;;;;;;4911143;29;20291;-73
2023/05/30 17:35:12;;;;;;;5.65;2.17;;;35.80;38.90;;;;;;4910469;29;20083;-73
2023/05/30 17:37:38;;;;;;;6.82;1.67;;;35.70;38.90;;;;;;4884190;29;20045;-72
2023/05/30 17:40:04;;;;;;;7.00;2.45;;;35.30;39.40;;;;;;4891802;29;20064;-73
2023/05/30 17:42:30;;;;;;;4.57;2.00;;;35.20;39.10;;;;;;4891302;29;20047;-72
2023/05/30 17:44:56;;;;;;;5.10;1.80;;;35.00;40.40;;;;;;4892817;29;20234;-73